Time;durP1;ratioP1;P1;durP2;ratioP2;P2;SDS_P1;SDS_P2;PMS_P1;PMS_P2;Temp;Humidity;BMP_temperature;BMP_pressure;BME280_temperature;BME280_humidity;BME280_pressure;Samples;Min_cycle;Max_cycle;Signal;HPM_P1;HPM_P2
2023/02/11 00:02:26;;;;;;;51.90;21.50;;;;;;;2.23;93.68;101954.73;104452;1268;98895;-77
2023/02/11 00:05:11;;;;;;;42.70;19.60;;;;;;;2.22;93.63;101952.99;104421;1272;97926;-77
2023/02/11 00:07:56;;;;;;;44.20;19.00;;;;;;;2.23;93.73;101950.86;104459;1273;97148;-77
2023/02/11 00:10:40;;;;;;;37.70;19.00;;;;;;;2.24;93.58;101951.14;104482;1272;100115;-78
2023/02/11 00:13:26;;;;;;;40.60;19.00;;;;;;;2.26;93.49;101957.86;104533;1272;100456;-76
2023/02/11 00:16:17;;;;;;;43.30;19.60;;;;;;;2.27;93.53;101955.52;104448;1272;99066;-76
2023/02/11 00:19:02;;;;;;;;;;;;;;;2.28;93.26;101947.86;104604;1267;96649;-75
2023/02/11 00:21:47;;;;;;;34.10;16.70;;;;;;;2.28;93.29;101937.15;104523;1271;98499;-76
2023/02/11 00:24:31;;;;;;;41.60;19.10;;;;;;;2.28;93.27;101930.77;104507;1267;102355;-76
2023/02/11 00:27:16;;;;;;;34.90;17.40;;;;;;;2.29;93.25;101913.79;104491;1272;99181;-76
2023/02/11 00:30:01;;;;;;;31.50;15.60;;;;;;;2.30;93.07;101906.50;104527;1273;99096;-76
2023/02/11 00:32:48;;;;;;;38.90;17.80;;;;;;;2.30;92.99;101903.31;104512;1272;96634;-76
2023/02/11 00:35:37;;;;;;;32.70;16.20;;;;;;;2.31;92.88;101902.40;104564;1268;97783;-77
2023/02/11 00:38:22;;;;;;;36.10;15.90;;;;;;;2.30;92.73;101891.50;104489;1267;101375;-75
2023/02/11 00:41:06;;;;;;;34.60;17.20;;;;;;;2.29;92.68;101889.29;104469;1267;101135;-75
2023/02/11 00:43:51;;;;;;;38.70;17.90;;;;;;;2.28;92.67;101888.31;104406;1267;97801;-76
2023/02/11 00:46:36;;;;;;;37.70;17.10;;;;;;;2.26;92.54;101888.80;104581;1273;96813;-76
2023/02/11 00:49:21;;;;;;;37.60;17.00;;;;;;;2.25;92.54;101878.66;104505;1273;96628;-76
2023/02/11 00:52:06;;;;;;;39.30;16.90;;;;;;;2.25;92.52;101873.36;104484;1267;100016;-75
2023/02/11 00:54:52;;;;;;;36.80;19.50;;;;;;;2.24;92.49;101874.81;104528;1267;99176;-75
2023/02/11 00:57:38;;;;;;;36.70;17.70;;;;;;;2.23;92.55;101869.11;104497;1267;98476;-76
2023/02/11 01:00:23;;;;;;;38.60;17.50;;;;;;;2.22;92.49;101864.05;104500;1267;96638;-76
2023/02/11 01:03:07;;;;;;;34.50;17.00;;;;;;;2.21;92.61;101859.36;104470;1273;97354;-76
2023/02/11 01:05:53;;;;;;;37.10;18.40;;;;;;;2.21;92.54;101852.15;104518;1267;101334;-76
2023/02/11 01:08:38;;;;;;;30.30;16.30;;;;;;;2.21;92.47;101842.45;104455;1267;100484;-75
2023/02/11 01:11:23;;;;;;;37.10;17.80;;;;;;;2.20;92.49;101828.18;104459;1267;98676;-75
2023/02/11 01:14:08;;;;;;;34.80;17.00;;;;;;;2.20;92.46;101811.66;104475;1271;97267;-77
2023/02/11 01:16:53;;;;;;;33.60;16.70;;;;;;;2.19;92.45;101792.53;104545;1267;97149;-77
2023/02/11 01:19:39;;;;;;;36.50;16.80;;;;;;;2.18;92.39;101784.48;104546;1273;101210;-78
2023/02/11 01:22:24;;;;;;;36.30;17.50;;;;;;;2.17;92.45;101779.83;104540;1267;99106;-75
2023/02/11 01:25:09;;;;;;;37.30;16.60;;;;;;;2.17;92.50;101775.94;104418;1267;97862;-78
2023/02/11 01:27:54;;;;;;;36.80;17.60;;;;;;;2.17;92.46;101777.88;104419;1268;96676;-78
2023/02/11 01:30:40;;;;;;;34.60;16.40;;;;;;;2.16;92.58;101775.95;104504;1272;96564;-76
2023/02/11 01:33:25;;;;;;;40.50;18.10;;;;;;;2.18;92.56;101782.02;104607;1272;101251;-76
2023/02/11 01:36:11;;;;;;;35.70;16.90;;;;;;;2.19;92.58;101792.18;104454;1273;99088;-76
2023/02/11 01:38:55;;;;;;;38.10;17.40;;;;;;;2.20;92.40;101797.56;104430;1267;98524;-76
2023/02/11 01:41:40;;;;;;;35.00;16.80;;;;;;;2.20;92.55;101796.31;104488;1268;96561;-76
2023/02/11 01:44:27;;;;;;;35.90;17.30;;;;;;;2.21;92.55;101784.98;104615;1272;97237;-78
2023/02/11 01:47:12;;;;;;;32.20;16.80;;;;;;;2.21;92.54;101776.85;104516;1273;101173;-77
2023/02/11 01:50:00;;;;;;;39.30;18.90;;;;;;;2.22;92.49;101764.95;104446;1267;100206;-77
2023/02/11 01:52:46;;;;;;;37.70;18.00;;;;;;;2.25;92.41;101759.00;104438;1267;99068;-77
2023/02/11 01:58:40;;;;;;;37.60;17.70;;;;;;;2.26;92.27;101743.95;104513;1267;97208;-76
2023/02/11 02:01:27;;;;;;;34.70;16.20;;;;;;;2.25;92.18;101730.23;104632;1273;102170;-75
2023/02/11 02:04:16;;;;;;;38.10;17.40;;;;;;;2.23;92.27;101715.95;104577;1272;99183;-76
2023/02/11 02:07:10;;;;;;;36.80;17.10;;;;;;;2.21;92.19;101717.33;104426;1268;97945;-76
2023/02/11 02:10:00;;;;;;;34.90;17.00;;;;;;;2.20;92.32;101706.12;104478;1271;96615;-75
2023/02/11 02:12:45;;;;;;;37.10;17.70;;;;;;;2.19;92.19;101691.06;104448;1273;96701;-76
2023/02/11 02:15:36;;;;;;;37.10;18.60;;;;;;;2.17;92.15;101682.33;104421;1273;100089;-76
2023/02/11 02:18:32;;;;;;;40.60;18.30;;;;;;;2.16;92.12;101677.34;104498;1270;100725;-76
2023/02/11 02:21:38;;;;;;;37.50;17.80;;;;;;;2.14;92.12;101682.37;104428;1267;97834;-77
2023/02/11 02:24:38;;;;;;;34.80;17.70;;;;;;;2.13;92.09;101683.31;104422;1268;96573;-77
2023/02/11 02:27:32;;;;;;;38.10;17.30;;;;;;;2.13;92.18;101678.22;104475;1269;98222;-77
2023/02/11 02:30:57;;;;;;;32.90;15.90;;;;;;;2.14;92.20;101670.77;104431;1267;100019;-77
2023/02/11 02:33:51;;;;;;;37.90;17.00;;;;;;;2.15;92.20;101666.28;104479;1267;100670;-76
2023/02/11 02:36:46;;;;;;;34.10;16.20;;;;;;;2.16;92.08;101655.98;104340;1273;99021;-75
2023/02/11 02:39:34;;;;;;;39.40;16.80;;;;;;;2.17;91.95;101659.66;104415;1273;96723;-76
2023/02/11 02:42:20;;;;;;;30.40;16.20;;;;;;;2.16;91.88;101656.34;104562;1273;97072;-77
2023/02/11 02:45:07;;;;;;;31.50;15.00;;;;;;;2.17;91.80;101653.81;104446;1268;101818;-76
2023/02/11 02:47:51;;;;;;;34.60;16.90;;;;;;;2.17;91.77;101648.02;104555;1268;99249;-77
2023/02/11 02:50:36;;;;;;;33.60;17.10;;;;;;;2.16;91.83;101644.68;104515;1271;99083;-76
2023/02/11 02:53:49;;;;;;;34.80;16.30;;;;;;;2.17;91.68;101633.52;104454;1267;96633;-76
2023/02/11 02:56:52;;;;;;;37.50;17.60;;;;;;;2.17;91.69;101631.63;104630;1272;125509;-75
2023/02/11 03:00:04;;;;;;;33.10;15.90;;;;;;;2.17;91.60;101632.30;104624;1273;101350;-76
2023/02/11 03:03:00;;;;;;;31.70;15.30;;;;;;;2.17;91.58;101637.08;105019;1267;99199;-76
2023/02/11 03:05:54;;;;;;;34.50;15.90;;;;;;;2.17;91.44;101635.14;104437;1273;98624;-76
2023/02/11 03:08:49;;;;;;;30.60;16.40;;;;;;;2.18;91.39;101632.42;104453;1270;98487;-75
2023/02/11 03:11:36;;;;;;;32.80;15.50;;;;;;;2.20;91.31;101623.47;104491;1273;97212;-76
2023/02/11 03:14:23;;;;;;;38.80;18.30;;;;;;;2.20;90.99;101620.78;104467;1272;100020;-74
2023/02/11 03:17:09;;;;;;;32.30;16.00;;;;;;;2.21;90.98;101612.83;104479;1272;99390;-76
2023/02/11 03:19:57;;;;;;;33.80;16.80;;;;;;;2.21;90.78;101611.92;104379;1272;97800;-76
2023/02/11 03:22:52;;;;;;;31.20;16.10;;;;;;;2.22;90.68;101604.48;104614;1268;97818;-76
2023/02/11 03:25:43;;;;;;;37.60;17.90;;;;;;;2.22;90.42;101597.61;104604;1273;96792;-77
2023/02/11 03:28:41;;;;;;;36.10;16.70;;;;;;;2.22;90.36;101591.95;104506;1267;100097;-75
2023/02/11 03:31:32;;;;;;;42.00;20.40;;;;;;;2.22;90.20;101584.06;104410;1273;99844;-76
2023/02/11 03:34:35;;;;;;;40.90;19.50;;;;;;;2.23;90.16;101573.92;104542;1273;98917;-77
2023/02/11 03:37:43;;;;;;;35.00;19.00;;;;;;;2.22;90.02;101568.66;105450;1267;96633;-77
2023/02/11 03:40:34;;;;;;;36.40;17.70;;;;;;;2.23;89.99;101563.70;104443;1272;97818;-75
2023/02/11 03:43:32;;;;;;;37.00;19.00;;;;;;;2.23;89.89;101574.24;104517;1273;100618;-77
2023/02/11 03:46:21;;;;;;;42.20;19.30;;;;;;;2.23;89.65;101583.41;104428;1273;99914;-77
2023/02/11 03:49:11;;;;;;;41.10;21.60;;;;;;;2.22;89.71;101576.27;104484;1267;98938;-76
2023/02/11 03:51:57;;;;;;;34.60;19.30;;;;;;;2.22;89.58;101574.54;105212;1272;96631;-84
2023/02/11 03:54:52;;;;;;;42.20;20.60;;;;;;;2.21;89.37;101571.89;105775;1267;97053;-83
2023/02/11 03:57:53;;;;;;;39.30;20.30;;;;;;;2.22;89.34;101567.45;105779;1267;102135;-88
2023/02/11 04:00:40;;;;;;;43.70;21.40;;;;;;;2.22;89.25;101564.80;105579;1268;99206;-86
2023/02/11 04:03:25;;;;;;;43.70;24.30;;;;;;;2.22;89.23;101558.80;105407;1276;97808;-85
2023/02/11 04:06:10;;;;;;;42.70;21.30;;;;;;;2.22;89.10;101547.22;105289;1273;96700;-84
2023/02/11 04:08:55;;;;;;;41.40;20.50;;;;;;;2.23;88.95;101536.58;105539;1267;96638;-84
2023/02/11 04:11:40;;;;;;;43.70;22.30;;;;;;;2.22;88.83;101530.07;105629;1271;102161;-83
2023/02/11 04:14:26;;;;;;;45.10;20.40;;;;;;;2.22;88.77;101527.99;105628;1270;101290;-86
2023/02/11 04:17:12;;;;;;;44.00;21.20;;;;;;;2.21;88.62;101523.48;105585;1267;97713;-82
2023/02/11 04:19:57;;;;;;;48.80;22.30;;;;;;;2.20;88.59;101515.42;105556;1267;96558;-83
2023/02/11 04:22:49;;;;;;;41.30;21.30;;;;;;;2.19;88.35;101512.39;105803;1268;97118;-88
2023/02/11 04:25:37;;;;;;;44.80;22.60;;;;;;;2.17;88.34;101504.57;106061;1271;101022;-88
2023/02/11 04:28:22;;;;;;;42.80;20.90;;;;;;;2.18;88.29;101494.67;105582;1267;100853;-86
2023/02/11 04:31:20;;;;;;;;;;;;;;;;;;;;;
2023/02/11 04:34:07;;;;;;;39.40;20.00;;;;;;;2.19;88.20;101482.94;105700;1267;96670;-86
2023/02/11 04:36:56;;;;;;;44.20;22.30;;;;;;;2.19;88.18;101467.23;105915;1267;96563;-86
2023/02/11 04:39:41;;;;;;;45.80;22.30;;;;;;;2.19;88.12;101462.13;105612;1270;101171;-86
2023/02/11 04:42:26;;;;;;;43.90;22.70;;;;;;;2.20;88.05;101450.64;105454;1271;99156;-77
2023/02/11 04:45:10;;;;;;;43.50;21.40;;;;;;;2.21;88.19;101438.58;104713;1272;99598;-76
2023/02/11 04:47:55;;;;;;;49.90;24.90;;;;;;;2.21;88.09;101436.44;104738;1272;97405;-77
2023/02/11 04:50:40;;;;;;;53.40;25.40;;;;;;;2.20;87.97;101429.99;104671;1268;97274;-77
2023/02/11 04:53:25;;;;;;;46.40;22.50;;;;;;;2.19;87.81;101428.13;104670;1267;100000;-77
2023/02/11 04:56:10;;;;;;;50.50;24.70;;;;;;;2.18;87.81;101422.35;104693;1267;99198;-77
2023/02/11 04:58:54;;;;;;;48.00;22.80;;;;;;;2.19;87.78;101424.25;104421;1267;97845;-77
2023/02/11 05:01:40;;;;;;;48.90;23.00;;;;;;;2.18;87.92;101420.06;104418;1273;97224;-77
2023/02/11 05:04:24;;;;;;;43.20;21.60;;;;;;;2.18;87.90;101418.34;104418;1268;97363;-77
2023/02/11 05:07:09;;;;;;;47.80;23.10;;;;;;;2.18;87.73;101413.56;104513;1268;100131;-77
2023/02/11 05:09:54;;;;;;;42.90;22.20;;;;;;;2.17;87.72;101410.81;104724;1273;100444;-77
2023/02/11 05:12:39;;;;;;;43.60;22.90;;;;;;;2.16;87.39;101405.98;104735;1268;97813;-78
2023/02/11 05:15:24;;;;;;;43.80;21.70;;;;;;;2.15;87.54;101404.08;104638;1268;96557;-77
2023/02/11 05:18:08;;;;;;;50.30;23.20;;;;;;;2.15;87.62;101397.41;104608;1273;97155;-77
2023/02/11 05:20:53;;;;;;;44.30;23.40;;;;;;;2.16;87.66;101399.45;104430;1272;100403;-77
2023/02/11 05:23:39;;;;;;;43.30;22.90;;;;;;;2.17;87.59;101402.74;104669;1267;100220;-77
2023/02/11 05:26:24;;;;;;;46.80;24.80;;;;;;;2.17;87.60;101399.73;104755;1274;97802;-78
2023/02/11 05:29:09;;;;;;;50.10;24.00;;;;;;;2.17;87.54;101397.27;104688;1267;97199;-77
2023/02/11 05:31:53;;;;;;;50.10;24.30;;;;;;;2.18;87.58;101401.40;104789;1267;96575;-77
2023/02/11 05:34:38;;;;;;;44.50;23.10;;;;;;;2.20;87.49;101399.31;104754;1268;100073;-76
2023/02/11 05:37:23;;;;;;;45.40;22.40;;;;;;;2.22;87.52;101389.13;104701;1272;99249;-77
2023/02/11 05:40:08;;;;;;;47.20;23.90;;;;;;;2.24;87.65;101381.38;104552;1267;97823;-76
2023/02/11 05:42:53;;;;;;;42.10;23.30;;;;;;;2.25;87.35;101381.89;104434;1272;96708;-77
2023/02/11 05:45:38;;;;;;;48.50;23.60;;;;;;;2.24;87.40;101380.17;104473;1273;96643;-77
2023/02/11 05:48:23;;;;;;;47.40;23.70;;;;;;;2.25;87.34;101374.45;104563;1273;100160;-77
2023/02/11 05:51:07;;;;;;;40.80;23.10;;;;;;;2.25;87.38;101370.96;104691;1268;99164;-77
2023/02/11 05:53:52;;;;;;;53.90;27.00;;;;;;;2.25;87.30;101368.85;104776;1267;97929;-77
2023/02/11 05:56:36;;;;;;;47.30;23.90;;;;;;;2.26;87.22;101364.89;104676;1269;96723;-76
2023/02/11 05:59:21;;;;;;;47.60;25.30;;;;;;;2.26;87.31;101365.93;104789;1268;97185;-77
2023/02/11 06:02:09;;;;;;;47.60;25.50;;;;;;;2.27;87.33;101372.91;104682;1268;101558;-76
2023/02/11 06:04:54;;;;;;;52.60;27.00;;;;;;;2.27;87.34;101374.10;104728;1268;99280;-77
2023/02/11 06:07:39;;;;;;;44.40;23.00;;;;;;;2.28;87.48;101367.88;104698;1273;98014;-77
2023/02/11 06:10:24;;;;;;;52.80;26.90;;;;;;;2.29;87.24;101360.42;104643;1267;96739;-77
2023/02/11 06:13:09;;;;;;;51.40;26.80;;;;;;;2.29;87.24;101351.42;105225;1273;98288;-78
2023/02/11 06:15:59;;;;;;;55.60;27.40;;;;;;;2.30;87.38;101346.63;105267;1272;100176;-79
2023/02/11 06:18:44;;;;;;;48.60;27.10;;;;;;;2.30;87.36;101345.52;105166;1273;99163;-79
2023/02/11 06:21:28;;;;;;;53.30;27.40;;;;;;;2.30;87.20;101341.98;105186;1271;97783;-79
2023/02/11 06:24:41;;;;;;;;;;;;;;;;;;;;;
2023/02/11 06:27:55;;;;;;;52.70;24.50;;;;;;;2.32;87.33;101343.64;106216;1272;97174;-89
2023/02/11 06:31:05;;;;;;;;;;;;;;;;;;;;;
2023/02/11 06:34:16;;;;;;;55.50;27.80;;;;;;;2.34;87.25;101325.42;106061;1267;99061;-88
2023/02/11 06:37:02;;;;;;;49.20;26.00;;;;;;;2.35;87.30;101327.48;105603;1268;97700;-77
2023/02/11 06:39:46;;;;;;;49.20;26.50;;;;;;;2.37;87.25;101325.82;104980;1268;96637;-74
2023/02/11 06:42:31;;;;;;;55.40;28.10;;;;;;;2.38;87.13;101329.25;104748;1268;97217;-78
2023/02/11 06:45:16;;;;;;;58.30;28.90;;;;;;;2.38;87.06;101321.13;104933;1271;100805;-77
2023/02/11 06:48:00;;;;;;;56.20;29.70;;;;;;;2.38;87.03;101317.61;104698;1268;99748;-77
2023/02/11 06:50:45;;;;;;;49.80;26.10;;;;;;;2.37;87.05;101312.22;104754;1274;97765;-76
2023/02/11 06:53:31;;;;;;;53.90;29.70;;;;;;;2.37;87.07;101311.73;104739;1267;96712;-76
2023/02/11 06:56:19;;;;;;;56.30;29.90;;;;;;;2.37;87.12;101308.39;104669;1267;96544;-75
2023/02/11 06:59:04;;;;;;;57.50;30.90;;;;;;;2.36;87.23;101299.95;104695;1268;100227;-76
2023/02/11 07:01:49;;;;;;;55.30;30.10;;;;;;;2.35;87.25;101299.72;104787;1267;100442;-77
2023/02/11 07:04:33;;;;;;;56.30;30.60;;;;;;;2.33;87.29;101295.63;104755;1272;98678;-76
2023/02/11 07:07:18;;;;;;;55.90;29.70;;;;;;;2.32;87.43;101288.10;104666;1273;96632;-76
2023/02/11 07:10:04;;;;;;;56.90;30.30;;;;;;;2.32;87.55;101291.46;104484;1267;97288;-77
2023/02/11 07:12:49;;;;;;;57.70;31.50;;;;;;;2.31;87.39;101292.04;105184;1268;101502;-76
2023/02/11 07:15:36;;;;;;;54.70;29.00;;;;;;;2.29;87.62;101295.16;105137;1268;99411;-85
2023/02/11 07:18:23;;;;;;;55.30;28.50;;;;;;;2.29;87.69;101308.73;105782;1273;99273;-85
2023/02/11 07:21:10;;;;;;;62.50;32.20;;;;;;;2.30;87.63;101302.91;105164;1268;96624;-75
2023/02/11 07:23:55;;;;;;;54.70;28.90;;;;;;;2.30;87.73;101292.83;104593;1273;96773;-76
2023/02/11 07:26:40;;;;;;;56.10;31.20;;;;;;;2.30;87.65;101288.11;104824;1281;101500;-81
2023/02/11 07:29:25;;;;;;;55.80;30.10;;;;;;;2.29;87.72;101290.80;104822;1268;100426;-76
2023/02/11 07:32:12;;;;;;;60.70;31.00;;;;;;;2.29;87.80;101284.13;104713;1272;98497;-80
2023/02/11 07:34:59;;;;;;;56.40;30.00;;;;;;;2.28;87.69;101275.16;105362;1268;96651;-75
2023/02/11 07:37:46;;;;;;;61.00;32.20;;;;;;;2.28;88.03;101272.68;104708;1267;96440;-85
2023/02/11 07:40:31;;;;;;;61.50;31.00;;;;;;;2.28;87.87;101277.28;104974;1268;100160;-74
2023/02/11 07:43:16;;;;;;;61.80;30.20;;;;;;;2.29;88.09;101280.06;104491;1268;109318;-74
2023/02/11 07:46:16;;;;;;;58.00;30.40;;;;;;;2.30;88.03;101284.76;104455;1273;97836;-74
2023/02/11 07:49:01;;;;;;;59.50;31.30;;;;;;;2.31;88.36;101287.27;104388;1273;96749;-75
2023/02/11 07:51:47;;;;;;;66.40;32.40;;;;;;;2.31;88.54;101280.08;104458;1268;96541;-75
2023/02/11 07:54:32;;;;;;;59.10;32.00;;;;;;;2.29;88.90;101282.36;104438;1267;101001;-74
2023/02/11 07:57:17;;;;;;;64.20;33.40;;;;;;;2.27;89.32;101279.86;104481;1268;99712;-74
2023/02/11 08:00:04;;;;;;;69.50;37.70;;;;;;;2.24;89.51;101280.98;104563;1267;97812;-83
2023/02/11 08:02:58;;;;;;;62.90;34.30;;;;;;;2.23;89.93;101274.55;106507;1273;96753;-75
2023/02/11 08:05:43;;;;;;;62.80;32.30;;;;;;;2.22;90.10;101269.64;104575;1273;97064;-78
2023/02/11 08:08:28;;;;;;;65.00;34.00;;;;;;;2.23;90.53;101266.58;104468;1268;100673;-76
2023/02/11 08:11:19;;;;;;;73.60;39.30;;;;;;;2.23;90.63;101270.27;104672;1272;99259;-85
2023/02/11 08:14:04;;;;;;;79.10;38.50;;;;;;;2.22;90.85;101268.61;106408;1267;99107;-84
2023/02/11 08:16:49;;;;;;;305.70;108.50;;;;;;;2.21;90.96;101268.66;105781;1273;96020;-78
2023/02/11 08:19:33;;;;;;;86.00;43.00;;;;;;;2.22;91.07;101273.54;105002;1272;96631;-74
2023/02/11 08:22:19;;;;;;;73.20;39.30;;;;;;;2.23;91.17;101269.94;104363;1272;100739;-74
2023/02/11 08:25:04;;;;;;;69.70;34.90;;;;;;;2.22;91.52;101270.15;105141;1271;100941;-77
2023/02/11 08:27:49;;;;;;;66.50;32.90;;;;;;;2.24;91.55;101272.52;104730;1268;99091;-77
2023/02/11 08:30:34;;;;;;;52.80;29.30;;;;;;;2.26;91.72;101270.23;104845;1270;96616;-78
2023/02/11 08:33:19;;;;;;;62.20;33.40;;;;;;;2.27;91.95;101269.10;104991;1268;97261;-78
2023/02/11 08:36:16;;;;;;;63.70;34.60;;;;;;;2.26;92.16;101266.02;104936;1273;99980;-78
2023/02/11 08:39:05;;;;;;;66.90;34.90;;;;;;;2.25;92.50;101252.02;104840;1268;100064;-75
2023/02/11 08:41:52;;;;;;;68.30;34.40;;;;;;;2.23;92.72;101236.46;104638;1272;98050;-75
2023/02/11 08:44:38;;;;;;;62.50;33.20;;;;;;;2.25;92.84;101230.00;104493;1268;96750;-74
2023/02/11 08:47:22;;;;;;;60.50;32.50;;;;;;;2.27;93.13;101224.35;104999;1274;96678;-84
2023/02/11 08:50:07;;;;;;;60.90;35.90;;;;;;;2.28;93.24;101214.20;105555;1268;101222;-77
2023/02/11 08:52:52;;;;;;;57.60;33.10;;;;;;;2.31;93.36;101206.04;104769;1271;100424;-78
2023/02/11 08:55:37;;;;;;;70.80;37.30;;;;;;;2.36;93.47;101200.08;104635;1273;97648;-77
2023/02/11 08:58:22;;;;;;;65.60;35.00;;;;;;;2.37;93.69;101196.30;104599;1273;96703;-76
2023/02/11 09:01:28;;;;;;;56.50;31.70;;;;;;;2.37;93.66;101181.14;104763;1272;98301;-77
2023/02/11 09:04:12;;;;;;;63.20;35.00;;;;;;;2.36;93.64;101165.48;105571;1272;100739;-76
2023/02/11 09:09:54;;;;;;;69.60;34.30;;;;;;;2.38;94.14;101151.58;102982;1272;98617;-76
2023/02/11 09:12:39;;;;;;;63.20;33.20;;;;;;;2.39;94.26;101145.02;104440;1267;96647;-74
2023/02/11 09:15:24;;;;;;;61.60;33.60;;;;;;;2.40;94.24;101152.48;105425;1267;97403;-77
2023/02/11 09:18:09;;;;;;;64.70;32.90;;;;;;;2.41;94.33;101154.90;104809;1273;100121;-77
2023/02/11 09:21:05;;;;;;;70.30;36.30;;;;;;;2.43;94.44;101161.27;104735;1272;100262;-77
2023/02/11 09:23:50;;;;;;;84.30;46.60;;;;;;;2.43;94.55;101157.23;105101;1270;97930;-77
2023/02/11 09:26:36;;;;;;;77.50;41.90;;;;;;;2.42;94.68;101166.93;104712;1273;96635;-77
2023/02/11 09:29:21;;;;;;;90.90;49.10;;;;;;;2.43;94.74;101167.09;104556;1272;97307;-77
2023/02/11 09:32:06;;;;;;;134.90;76.80;;;;;;;2.41;94.84;101163.86;104501;1272;100167;-77
2023/02/11 09:34:51;;;;;;;77.40;40.70;;;;;;;2.40;95.01;101174.84;105514;1267;99866;-78
2023/02/11 09:37:35;;;;;;;67.90;36.30;;;;;;;2.41;95.08;101176.26;104921;1272;98321;-78
2023/02/11 09:40:21;;;;;;;68.30;34.70;;;;;;;2.42;95.19;101169.26;104863;1270;95923;-77
2023/02/11 09:43:19;;;;;;;69.70;37.00;;;;;;;2.44;95.42;101183.54;105769;1272;96644;-77
2023/02/11 09:46:05;;;;;;;65.60;33.60;;;;;;;2.46;95.37;101186.76;104911;1272;100085;-77
2023/02/11 09:48:52;;;;;;;70.40;36.30;;;;;;;2.46;95.52;101184.79;104968;1267;99249;-78
2023/02/11 09:51:48;;;;;;;69.30;35.70;;;;;;;2.46;95.84;101179.19;104924;1273;97679;-77
2023/02/11 09:54:41;;;;;;;68.00;38.20;;;;;;;2.47;95.91;101164.31;104972;1272;96638;-77
2023/02/11 09:57:31;;;;;;;71.80;35.50;;;;;;;2.49;96.06;101169.96;105152;1271;96836;-78
2023/02/11 10:00:23;;;;;;;79.90;40.50;;;;;;;2.51;96.22;101171.52;105038;1273;101048;-85
2023/02/11 10:03:43;;;;;;;74.00;34.90;;;;;;;2.52;96.52;101175.65;104916;1273;99095;-78
2023/02/11 10:06:41;;;;;;;85.10;42.10;;;;;;;2.52;96.51;101178.84;105510;1272;97873;-77
2023/02/11 10:09:43;;;;;;;89.70;50.90;;;;;;;2.52;96.89;101177.32;104718;1273;96682;-76
2023/02/11 10:12:44;;;;;;;81.80;40.50;;;;;;;2.51;97.03;101171.92;104828;1267;96555;-76
2023/02/11 10:15:44;;;;;;;80.10;39.90;;;;;;;2.50;97.02;101163.36;106121;1268;102454;-77
2023/02/11 10:18:49;;;;;;;78.70;41.60;;;;;;;2.49;97.19;101160.41;104813;1267;99331;-77
2023/02/11 10:21:53;;;;;;;73.90;38.10;;;;;;;2.49;97.40;101156.69;104740;1267;99048;-76
2023/02/11 10:24:40;;;;;;;80.10;41.70;;;;;;;2.50;97.45;101150.67;104624;1268;96643;-76
2023/02/11 10:27:30;;;;;;;82.50;46.40;;;;;;;2.50;97.46;101139.52;104789;1273;96561;-76
2023/02/11 10:30:30;;;;;;;86.50;45.80;;;;;;;2.51;97.53;101121.84;104598;1270;99942;-77
2023/02/11 10:33:44;;;;;;;80.80;40.60;;;;;;;2.51;97.54;101120.55;104734;1271;99149;-77
2023/02/11 10:36:33;;;;;;;85.60;44.80;;;;;;;2.51;97.79;101085.67;104734;1268;97828;-73
2023/02/11 10:39:20;;;;;;;89.70;47.90;;;;;;;2.52;97.84;101084.58;104315;1268;98019;-72
2023/02/11 10:42:11;;;;;;;80.10;43.70;;;;;;;2.53;97.90;101074.27;104360;1273;97309;-72
2023/02/11 10:45:02;;;;;;;96.10;47.90;;;;;;;2.54;97.92;101079.80;105333;1268;101391;-76
2023/02/11 10:47:47;;;;;;;90.20;47.00;;;;;;;2.56;98.05;101065.23;104486;1273;99233;-75
2023/02/11 10:50:33;;;;;;;84.30;45.10;;;;;;;2.57;98.16;101062.06;104549;1273;97868;-76
2023/02/11 10:53:20;;;;;;;83.80;44.40;;;;;;;2.59;98.25;101073.41;104809;1268;96712;-76
2023/02/11 10:56:06;;;;;;;78.70;41.90;;;;;;;2.59;98.31;101071.65;104746;1267;97232;-76
2023/02/11 10:58:56;;;;;;;87.30;41.10;;;;;;;2.58;98.25;101066.75;104536;1270;100012;-73
2023/02/11 11:01:48;;;;;;;96.70;46.30;;;;;;;2.59;98.45;101051.34;104403;1273;99207;-73
2023/02/11 11:04:43;;;;;;;76.80;41.60;;;;;;;2.59;98.45;101039.85;104428;1273;98337;-73
2023/02/11 11:07:31;;;;;;;84.10;41.40;;;;;;;2.62;98.47;101033.45;104359;1268;96804;-73
2023/02/11 11:10:34;;;;;;;79.20;41.20;;;;;;;2.65;98.59;101043.27;104382;1267;98235;-75
2023/02/11 11:13:25;;;;;;;88.20;41.80;;;;;;;2.66;98.69;101068.04;104380;1268;100030;-74
2023/02/11 11:16:12;;;;;;;93.10;47.50;;;;;;;2.68;98.79;101083.10;104922;1268;99142;-74
2023/02/11 11:19:07;;;;;;;94.80;48.40;;;;;;;2.66;98.83;101091.65;104704;1273;98422;-74
2023/02/11 11:21:53;;;;;;;88.50;45.50;;;;;;;2.66;98.90;101085.52;104450;1271;96673;-74
2023/02/11 11:24:45;;;;;;;84.60;44.30;;;;;;;2.66;98.77;101092.56;105683;1270;97047;-74
2023/02/11 11:27:29;;;;;;;81.40;42.20;;;;;;;2.67;98.93;101090.41;104491;1272;101404;-74
2023/02/11 11:30:15;;;;;;;81.60;39.90;;;;;;;2.67;98.86;101086.30;104470;1268;99205;-73
2023/02/11 11:33:01;;;;;;;81.60;42.00;;;;;;;2.67;98.87;101081.20;104347;1270;97850;-73
2023/02/11 11:35:57;;;;;;;93.10;45.40;;;;;;;2.67;99.07;101071.45;104425;1268;97976;-74
2023/02/11 11:38:50;;;;;;;79.80;41.40;;;;;;;2.68;99.04;101067.73;104907;1268;97127;-82
2023/02/11 11:41:34;;;;;;;86.90;43.00;;;;;;;2.69;99.22;101069.24;105302;1271;100838;-74
2023/02/11 11:44:24;;;;;;;93.20;46.80;;;;;;;2.70;99.41;101076.37;104333;1273;100505;-73
2023/02/11 11:47:25;;;;;;;82.40;40.80;;;;;;;2.71;99.57;101075.77;104388;1268;97867;-74
2023/02/11 11:50:35;;;;;;;88.80;45.30;;;;;;;2.70;99.73;101065.23;105163;1268;96683;-78
2023/02/11 11:53:37;;;;;;;110.10;51.20;;;;;;;2.71;99.97;101056.50;104584;1273;96878;-77
2023/02/11 11:56:32;;;;;;;90.20;44.30;;;;;;;2.73;100.00;101051.24;104801;1273;100202;-78
2023/02/11 11:59:17;;;;;;;100.00;50.20;;;;;;;2.74;100.00;101053.80;104649;1268;100430;-76
2023/02/11 12:02:29;;;;;;;84.60;44.60;;;;;;;2.76;100.00;101051.38;104611;1268;97883;-77
2023/02/11 12:05:25;;;;;;;92.50;46.20;;;;;;;2.78;100.00;101043.95;104884;1267;96695;-77
2023/02/11 12:08:35;;;;;;;91.00;46.10;;;;;;;2.79;100.00;101043.66;104765;1273;98369;-78
2023/02/11 12:12:22;;;;;;;87.80;43.70;;;;;;;2.82;100.00;101036.21;104770;1272;100056;-78
2023/02/11 12:15:22;;;;;;;118.70;54.00;;;;;;;2.84;100.00;101033.07;104227;1279;99337;-77
2023/02/11 12:18:31;;;;;;;90.20;45.80;;;;;;;2.86;100.00;101030.91;104441;1279;98385;-77
2023/02/11 12:21:55;;;;;;;91.90;44.60;;;;;;;2.88;100.00;101034.61;105273;1268;96633;-75
2023/02/11 12:25:14;;;;;;;88.40;44.30;;;;;;;2.90;100.00;101038.35;104806;1273;97188;-75
2023/02/11 12:28:10;;;;;;;77.90;41.10;;;;;;;2.91;100.00;101044.77;104561;1273;101348;-77
2023/02/11 12:31:22;;;;;;;87.40;44.60;;;;;;;2.93;100.00;101042.84;104366;1273;99190;-76
2023/02/11 12:34:13;;;;;;;83.60;41.40;;;;;;;2.95;100.00;101046.58;104594;1268;97809;-77
2023/02/11 12:37:33;;;;;;;80.20;42.40;;;;;;;2.98;100.00;101049.16;105609;1272;97932;-81
2023/02/11 12:40:31;;;;;;;81.90;43.50;;;;;;;3.01;100.00;101045.04;105582;1272;97147;-81
2023/02/11 12:43:28;;;;;;;87.20;43.80;;;;;;;3.03;100.00;101050.98;105553;1268;101263;-81
2023/02/11 12:46:31;;;;;;;86.40;42.40;;;;;;;3.06;100.00;101053.94;105533;1272;99289;-80
2023/02/11 12:49:52;;;;;;;89.00;47.00;;;;;;;3.07;100.00;101050.27;105027;1267;97803;-86
2023/02/11 12:53:18;;;;;;;135.70;59.40;;;;;;;3.10;100.00;101043.70;104598;1273;96701;-81
2023/02/11 12:56:16;;;;;;;93.40;49.00;;;;;;;3.13;100.00;101051.21;105617;1267;97150;-83
2023/02/11 12:59:06;;;;;;;89.10;48.70;;;;;;;3.15;100.00;101048.39;104428;1273;101347;-76
2023/02/11 13:01:52;;;;;;;86.40;43.00;;;;;;;3.18;100.00;101057.34;105294;1268;99224;-83